createdAt,value
2022-08-08T00:03:31.499Z,16.90
2022-08-08T00:09:16.679Z,16.80
2022-08-08T00:15:10.545Z,16.70
2022-08-08T00:20:56.940Z,16.70
2022-08-08T00:26:33.998Z,16.60
2022-08-08T00:32:20.426Z,16.50
2022-08-08T00:38:06.325Z,16.40
2022-08-08T00:44:15.163Z,16.30
2022-08-08T00:50:23.447Z,16.20
2022-08-08T00:56:29.539Z,16.10
2022-08-08T01:03:59.627Z,16.10
2022-08-08T01:09:35.767Z,16.00
2022-08-08T01:15:54.530Z,16.00
2022-08-08T01:22:09.817Z,15.90
2022-08-08T01:28:04.058Z,15.80
2022-08-08T01:34:05.071Z,15.80
2022-08-08T01:40:24.505Z,15.80
2022-08-08T01:46:24.797Z,15.80
2022-08-08T01:54:05.122Z,15.70
2022-08-08T01:58:46.974Z,15.80
2022-08-08T02:04:35.295Z,15.70
2022-08-08T02:10:49.723Z,15.70
2022-08-08T02:17:20.377Z,15.60
2022-08-08T02:23:22.946Z,15.60
2022-08-08T02:29:52.549Z,15.50
2022-08-08T02:36:03.473Z,15.50
2022-08-08T02:42:05.602Z,15.50
2022-08-08T02:48:33.477Z,15.40
2022-08-08T02:54:39.667Z,15.40
2022-08-08T03:00:27.276Z,15.40
2022-08-08T03:06:30.599Z,15.40
2022-08-08T03:12:36.840Z,15.30
2022-08-08T03:18:57.794Z,15.20
2022-08-08T03:24:27.046Z,15.20
2022-08-08T03:30:09.774Z,15.20
2022-08-08T03:35:43.719Z,15.10
2022-08-08T03:41:22.859Z,15.10
2022-08-08T03:47:19.697Z,15.10
2022-08-08T03:52:52.087Z,15.00
2022-08-08T03:58:34.082Z,14.90
2022-08-08T04:04:13.765Z,14.90
2022-08-08T04:10:03.003Z,14.90
2022-08-08T04:15:38.890Z,14.90
2022-08-08T04:21:10.858Z,14.90
2022-08-08T04:26:56.871Z,14.80
2022-08-08T04:32:30.822Z,14.90
2022-08-08T04:38:03.384Z,14.90
2022-08-08T04:43:45.874Z,15.00
2022-08-08T04:49:28.637Z,15.10
2022-08-08T04:55:10.877Z,15.30
2022-08-08T05:00:38.994Z,15.50
2022-08-08T05:06:13.439Z,15.60
2022-08-08T05:11:56.556Z,15.70
2022-08-08T05:17:26.861Z,15.80
2022-08-08T05:23:05.581Z,16.00
2022-08-08T05:28:56.357Z,16.00
2022-08-08T05:34:26.825Z,16.20
2022-08-08T05:39:56.304Z,16.50
2022-08-08T05:45:41.535Z,16.70
2022-08-08T05:51:13.274Z,16.80
2022-08-08T05:56:48.341Z,17.10
2022-08-08T06:02:47.904Z,17.30
2022-08-08T06:08:33.247Z,17.60
2022-08-08T06:14:07.278Z,17.80
2022-08-08T06:19:42.701Z,18.10
2022-08-08T06:25:11.101Z,18.20
2022-08-08T06:30:44.869Z,18.30
2022-08-08T06:36:21.892Z,18.50
2022-08-08T06:42:03.312Z,18.70
2022-08-08T06:47:58.320Z,18.90
2022-08-08T06:53:39.510Z,19.00
2022-08-08T06:59:12.253Z,19.10
2022-08-08T07:05:24.567Z,19.30
2022-08-08T07:11:00.215Z,19.50
2022-08-08T07:17:09.572Z,19.60
2022-08-08T07:23:23.556Z,19.80
2022-08-08T07:28:56.431Z,20.00
2022-08-08T07:34:31.752Z,20.20
2022-08-08T07:40:05.260Z,20.40
2022-08-08T07:46:05.170Z,20.70
2022-08-08T07:51:45.010Z,20.90
2022-08-08T07:57:36.117Z,21.00
2022-08-08T08:03:20.638Z,20.80
2022-08-08T08:09:17.496Z,20.90
2022-08-08T08:15:07.352Z,21.10
2022-08-08T08:20:40.820Z,21.40
2022-08-08T08:26:12.783Z,21.60
2022-08-08T08:31:57.560Z,21.60
2022-08-08T08:37:30.183Z,21.60
2022-08-08T08:43:00.753Z,21.80
2022-08-08T08:48:29.930Z,22.10
2022-08-08T08:54:02.393Z,22.40
2022-08-08T08:59:58.758Z,22.40
2022-08-08T09:05:53.757Z,22.60
2022-08-08T09:11:19.622Z,22.70
2022-08-08T09:16:52.104Z,22.70
2022-08-08T09:22:26.597Z,23.10
2022-08-08T09:27:58.538Z,23.40
2022-08-08T09:34:06.309Z,23.50
2022-08-08T09:39:24.384Z,23.50
2022-08-08T09:46:00.644Z,23.20
2022-08-08T09:51:16.195Z,23.40
2022-08-08T09:56:50.164Z,23.60
2022-08-08T10:02:28.932Z,23.60
2022-08-08T10:07:59.882Z,23.80
2022-08-08T10:13:35.410Z,23.80
2022-08-08T10:19:07.692Z,23.80
2022-08-08T10:24:46.346Z,23.90
2022-08-08T10:31:00.641Z,24.00
2022-08-08T10:36:21.111Z,24.50
2022-08-08T10:42:15.335Z,25.10
2022-08-08T10:47:55.200Z,25.10
2022-08-08T10:53:56.607Z,25.20
2022-08-08T10:59:26.961Z,25.50
2022-08-08T11:05:05.561Z,25.80
2022-08-08T11:10:43.155Z,26.10
2022-08-08T11:16:34.652Z,25.70
2022-08-08T11:22:05.027Z,25.80
2022-08-08T11:27:36.953Z,25.50
2022-08-08T11:33:12.423Z,25.00
2022-08-08T11:38:55.499Z,25.10
2022-08-08T11:44:28.970Z,25.40
2022-08-08T11:50:03.600Z,25.60
2022-08-08T11:55:49.282Z,25.90
2022-08-08T12:01:18.394Z,26.30
2022-08-08T12:06:49.456Z,26.50
2022-08-08T12:12:28.753Z,26.70
2022-08-08T12:17:57.183Z,26.60
2022-08-08T12:23:43.931Z,26.60
2022-08-08T12:29:40.310Z,26.60
2022-08-08T12:35:21.513Z,26.50
2022-08-08T12:40:56.337Z,26.70
2022-08-08T12:46:26.744Z,26.90
2022-08-08T12:52:00.121Z,26.90
2022-08-08T12:57:31.130Z,26.60
2022-08-08T13:03:00.827Z,26.90
2022-08-08T13:08:40.852Z,26.70
2022-08-08T13:14:21.474Z,26.20
2022-08-08T13:20:06.364Z,26.10
2022-08-08T13:25:36.510Z,26.30
2022-08-08T13:31:05.585Z,26.40
2022-08-08T13:36:40.473Z,26.70
2022-08-08T13:42:12.669Z,26.90
2022-08-08T13:47:55.519Z,27.10
2022-08-08T13:53:36.345Z,27.30
2022-08-08T13:59:05.452Z,27.20
2022-08-08T14:04:35.215Z,27.10
2022-08-08T14:10:12.119Z,27.00
2022-08-08T14:15:50.393Z,27.00
2022-08-08T14:21:20.672Z,26.80
2022-08-08T14:26:55.423Z,26.90
2022-08-08T14:32:29.968Z,27.00
2022-08-08T14:38:09.447Z,27.40
2022-08-08T14:44:10.253Z,27.30
2022-08-08T14:50:05.826Z,27.70
2022-08-08T14:55:41.269Z,28.10
2022-08-08T15:01:23.216Z,27.90
2022-08-08T15:07:04.285Z,27.50
2022-08-08T15:12:37.389Z,27.00
2022-08-08T15:18:10.703Z,26.50
2022-08-08T15:23:43.192Z,26.20
2022-08-08T15:29:16.203Z,25.90
2022-08-08T15:34:57.004Z,25.70
2022-08-08T15:40:28.544Z,25.80
2022-08-08T15:45:59.034Z,25.70
2022-08-08T15:51:38.920Z,25.60
2022-08-08T15:57:16.525Z,25.40
2022-08-08T16:03:01.813Z,25.30
2022-08-08T16:08:35.429Z,25.20
2022-08-08T16:14:15.738Z,25.10
2022-08-08T16:19:59.542Z,25.10
2022-08-08T16:25:46.310Z,25.00
2022-08-08T16:37:18.174Z,24.80
2022-08-08T16:42:46.287Z,24.80
2022-08-08T16:48:23.033Z,24.70
2022-08-08T16:55:02.821Z,24.70
2022-08-08T16:59:41.055Z,24.90
2022-08-08T17:05:19.938Z,25.10
2022-08-08T17:10:57.971Z,24.80
2022-08-08T17:16:28.613Z,24.60
2022-08-08T17:21:57.884Z,24.30
2022-08-08T17:27:41.834Z,24.10
2022-08-08T17:34:35.731Z,24.00
2022-08-08T17:39:05.363Z,23.90
2022-08-08T17:44:52.777Z,23.70
2022-08-08T17:50:20.762Z,23.60
2022-08-08T17:56:06.148Z,23.50
2022-08-08T18:01:56.871Z,23.40
2022-08-08T18:08:01.126Z,23.30
2022-08-08T18:13:13.428Z,23.20
2022-08-08T18:18:52.772Z,23.10
2022-08-08T18:24:27.643Z,23.00
2022-08-08T18:29:58.250Z,22.90
2022-08-08T18:35:34.067Z,22.80
2022-08-08T18:41:09.607Z,22.70
2022-08-08T18:46:56.350Z,22.60
2022-08-08T18:52:25.442Z,22.50
2022-08-08T18:57:54.093Z,22.40
2022-08-08T19:03:22.057Z,22.20
2022-08-08T19:08:51.788Z,22.10
2022-08-08T19:14:20.255Z,22.00
2022-08-08T19:20:02.586Z,21.90
2022-08-08T19:26:26.866Z,21.80
2022-08-08T19:31:19.664Z,21.70
2022-08-08T19:36:52.066Z,21.60
2022-08-08T19:42:20.284Z,21.50
2022-08-08T19:47:52.468Z,21.40
2022-08-08T19:53:46.803Z,21.20
2022-08-08T19:59:14.437Z,21.10
2022-08-08T20:04:46.803Z,20.90
2022-08-08T20:10:18.110Z,20.80
2022-08-08T20:15:52.582Z,20.60
2022-08-08T20:21:32.014Z,20.40
2022-08-08T20:27:07.042Z,20.30
2022-08-08T20:32:37.643Z,20.20
2022-08-08T20:38:08.779Z,20.10
2022-08-08T20:43:44.078Z,20.00
2022-08-08T20:49:17.437Z,19.80
2022-08-08T20:54:45.563Z,19.70
2022-08-08T21:00:14.861Z,19.60
2022-08-08T21:05:49.375Z,19.50
2022-08-08T21:11:51.230Z,19.30
2022-08-08T21:17:15.820Z,19.20
2022-08-08T21:22:48.635Z,19.10
2022-08-08T21:28:35.791Z,19.00
2022-08-08T21:34:04.025Z,18.90
2022-08-08T21:39:56.189Z,18.80
2022-08-08T21:47:59.728Z,18.70
2022-08-08T21:51:11.243Z,18.60
2022-08-08T21:56:43.440Z,18.40
2022-08-08T22:02:14.229Z,18.40
2022-08-08T22:07:48.166Z,18.30
2022-08-08T22:13:19.539Z,18.20
2022-08-08T22:18:52.975Z,18.00
2022-08-08T22:24:23.798Z,17.90
2022-08-08T22:30:01.944Z,17.80
2022-08-08T22:36:04.173Z,17.70
2022-08-08T22:41:21.624Z,17.60
2022-08-08T22:46:51.589Z,17.50
2022-08-08T22:52:25.838Z,17.40
2022-08-08T22:57:54.517Z,17.30
2022-08-08T23:03:25.968Z,17.20
2022-08-08T23:09:14.004Z,17.20
2022-08-08T23:14:56.262Z,17.10
2022-08-08T23:20:28.190Z,17.00
2022-08-08T23:25:57.035Z,16.90
2022-08-08T23:31:24.981Z,16.90
2022-08-08T23:36:57.890Z,16.80
2022-08-08T23:42:26.336Z,16.80
2022-08-08T23:49:01.097Z,16.70
2022-08-08T23:54:05.358Z,16.60
2022-08-08T23:59:31.923Z,16.50
